createdAt,value
2022-09-04T00:00:19.407Z,100215.78
2022-09-04T00:01:25.802Z,100219.97
2022-09-04T00:02:48.406Z,100217.94
2022-09-04T00:03:56.404Z,100228.13
2022-09-04T00:05:35.286Z,100222.94
2022-09-04T00:06:38.467Z,100222.44
2022-09-04T00:07:47.302Z,100232.28
2022-09-04T00:08:48.815Z,100226.59
2022-09-04T00:10:11.375Z,100237.13
2022-09-04T00:11:18.956Z,100224.94
2022-09-04T00:12:26.728Z,100237.94
2022-09-04T00:13:31.909Z,100234.63
2022-09-04T00:14:37.151Z,100233.44
2022-09-04T00:15:43.344Z,100236.28
2022-09-04T00:16:54.917Z,100237.94
2022-09-04T00:18:06.709Z,100238.78
2022-09-04T00:19:10.183Z,100234.78
2022-09-04T00:20:20.699Z,100239.59
2022-09-04T00:21:28.270Z,100234.78
2022-09-04T00:22:29.806Z,100235.13
2022-09-04T00:23:51.575Z,100228.63
2022-09-04T00:25:04.025Z,100237.94
2022-09-04T00:26:36.659Z,100239.13
2022-09-04T00:27:44.831Z,100236.28
2022-09-04T00:28:56.086Z,100234.13
2022-09-04T00:30:29.937Z,100238.13
2022-09-04T00:31:36.683Z,100232.47
2022-09-04T00:32:38.657Z,100246.63
2022-09-04T00:33:49.114Z,100236.97
2022-09-04T00:34:50.702Z,100242.63
2022-09-04T00:35:56.555Z,100246.78
2022-09-04T00:36:58.454Z,100234.63
2022-09-04T00:38:02.844Z,100236.28
2022-09-04T00:39:09.124Z,100243.63
2022-09-04T00:40:34.022Z,100245.28
2022-09-04T00:41:54.871Z,100238.44
2022-09-04T00:43:11.194Z,100238.78
2022-09-04T00:44:28.322Z,100240.44
2022-09-04T00:45:39.080Z,100243.13
2022-09-04T00:46:58.947Z,100244.78
2022-09-04T00:48:03.618Z,100245.94
2022-09-04T00:49:25.387Z,100240.28
2022-09-04T00:50:35.661Z,100244.28
2022-09-04T00:51:52.704Z,100239.13
2022-09-04T00:52:58.484Z,100243.63
2022-09-04T00:54:19.654Z,100237.94
2022-09-04T00:55:41.083Z,100242.78
2022-09-04T00:57:01.359Z,100243.63
2022-09-04T00:58:14.928Z,100246.09
2022-09-04T00:59:33.618Z,100237.59
2022-09-04T01:00:36.104Z,100248.09
2022-09-04T01:01:38.801Z,100250.13
2022-09-04T01:02:57.317Z,100254.63
2022-09-04T01:04:17.595Z,100242.44
2022-09-04T01:05:27.963Z,100257.44
2022-09-04T01:06:32.845Z,100252.59
2022-09-04T01:07:35.287Z,100250.94
2022-09-04T01:08:40.787Z,100252.94
2022-09-04T01:09:54.021Z,100249.28
2022-09-04T01:11:10.958Z,100261.44
2022-09-04T01:12:12.563Z,100254.94
2022-09-04T01:13:33.903Z,100254.94
2022-09-04T01:14:40.227Z,100256.63
2022-09-04T01:15:45.954Z,100262.28
2022-09-04T01:16:54.508Z,100262.63
2022-09-04T01:17:59.099Z,100264.63
2022-09-04T01:19:19.395Z,100263.78
2022-09-04T01:20:31.665Z,100274.28
2022-09-04T01:21:45.443Z,100277.31
2022-09-04T01:22:51.690Z,100274.78
2022-09-04T01:23:55.936Z,100269.97
2022-09-04T01:25:03.209Z,100269.97
2022-09-04T01:26:08.001Z,100276.78
2022-09-04T01:27:10.718Z,100274.78
2022-09-04T01:28:26.173Z,100271.13
2022-09-04T01:29:46.559Z,100273.94
2022-09-04T01:30:48.084Z,100285.63
2022-09-04T01:31:58.650Z,100285.94
2022-09-04T01:33:07.095Z,100283.13
2022-09-04T01:34:08.555Z,100285.13
2022-09-04T01:35:15.990Z,100274.63
2022-09-04T01:36:37.799Z,100285.13
2022-09-04T01:38:05.634Z,100284.28
2022-09-04T01:39:07.263Z,100285.47
2022-09-04T01:40:35.493Z,100285.47
2022-09-04T01:41:38.627Z,100275.28
2022-09-04T01:42:46.199Z,100290.63
2022-09-04T01:43:47.878Z,100282.13
2022-09-04T01:44:49.475Z,100288.97
2022-09-04T01:46:10.237Z,100265.25
2022-09-04T01:47:11.777Z,100295.75
2022-09-04T01:48:14.323Z,100289.59
2022-09-04T01:49:34.620Z,100288.78
2022-09-04T01:50:36.456Z,100297.56
2022-09-04T01:51:38.009Z,100290.25
2022-09-04T01:52:53.984Z,100298.75
2022-09-04T01:54:18.074Z,100295.91
2022-09-04T01:55:38.563Z,100292.56
2022-09-04T01:56:55.164Z,100287.25
2022-09-04T01:58:15.405Z,100285.91
2022-09-04T01:59:19.622Z,100289.91
2022-09-04T02:00:23.091Z,100292.25
2022-09-04T02:01:45.489Z,100297.91
2022-09-04T02:02:47.023Z,100292.25
2022-09-04T02:04:09.309Z,100255.56
2022-09-04T02:05:29.373Z,100287.22
2022-09-04T02:06:30.848Z,100292.06
2022-09-04T02:07:44.444Z,100289.56
2022-09-04T02:09:01.255Z,100286.22
2022-09-04T02:10:06.004Z,100295.91
2022-09-04T02:11:16.576Z,100281.22
2022-09-04T02:12:38.115Z,100285.22
2022-09-04T02:13:56.331Z,100288.41
2022-09-04T02:14:57.856Z,100297.19
2022-09-04T02:16:17.858Z,100289.88
2022-09-04T02:17:34.379Z,100285.38
2022-09-04T02:18:43.321Z,100287.38
2022-09-04T02:19:57.841Z,100295.03
2022-09-04T02:21:05.292Z,100296.19
2022-09-04T02:22:12.898Z,100303.03
2022-09-04T02:23:35.807Z,100304.19
2022-09-04T02:24:52.639Z,100303.38
2022-09-04T02:25:59.131Z,100303.38
2022-09-04T02:27:13.679Z,100302.53
2022-09-04T02:28:33.602Z,100305.38
2022-09-04T02:29:39.623Z,100306.53
2022-09-04T02:30:59.994Z,100304.88
2022-09-04T02:32:25.715Z,100299.19
2022-09-04T02:33:30.011Z,100303.19
2022-09-04T02:34:40.020Z,100300.38
2022-09-04T02:35:47.313Z,100301.53
2022-09-04T02:37:15.339Z,100303.19
2022-09-04T02:38:19.619Z,100298.69
2022-09-04T02:39:21.277Z,100301.53
2022-09-04T02:40:40.161Z,100305.53
2022-09-04T02:41:51.156Z,100305.53
2022-09-04T02:42:58.549Z,100301.84
2022-09-04T02:44:07.085Z,100310.66
2022-09-04T02:45:11.348Z,100304.50
2022-09-04T02:46:22.757Z,100307.34
2022-09-04T02:47:29.183Z,100300.00
2022-09-04T02:48:38.107Z,100311.31
2022-09-04T02:49:39.648Z,100300.34
2022-09-04T02:50:46.202Z,100299.84
2022-09-04T02:51:56.700Z,100310.00
2022-09-04T02:53:10.380Z,100306.66
2022-09-04T02:54:21.359Z,100306.66
2022-09-04T02:55:35.195Z,100312.31
2022-09-04T02:56:41.750Z,100317.16
2022-09-04T02:57:43.240Z,100309.81
2022-09-04T02:59:03.681Z,100307.00
2022-09-04T03:00:20.931Z,100306.47
2022-09-04T03:01:23.296Z,100311.28
2022-09-04T03:02:29.703Z,100311.63
2022-09-04T03:03:43.645Z,100314.78
2022-09-04T03:04:50.948Z,100310.28
2022-09-04T03:05:52.470Z,100312.28
2022-09-04T03:06:55.095Z,100313.44
2022-09-04T03:07:56.569Z,100311.78
2022-09-04T03:08:59.820Z,100317.44
2022-09-04T03:10:08.521Z,100315.78
2022-09-04T03:11:30.327Z,100322.59
2022-09-04T03:12:34.951Z,100325.44
2022-09-04T03:13:55.142Z,100322.94
2022-09-04T03:14:59.560Z,100317.56
2022-09-04T03:16:07.309Z,100320.41
2022-09-04T03:17:26.206Z,100324.41
2022-09-04T03:18:30.419Z,100323.56
2022-09-04T03:19:48.941Z,100323.88
2022-09-04T03:21:22.835Z,100325.88
2022-09-04T03:22:26.988Z,100324.22
2022-09-04T03:23:46.721Z,100319.72
2022-09-04T03:25:00.311Z,100326.56
2022-09-04T03:26:01.769Z,100324.06
2022-09-04T03:27:04.700Z,100329.72
2022-09-04T03:28:07.320Z,100326.06
2022-09-04T03:29:10.151Z,100325.22
2022-09-04T03:30:11.971Z,100323.56
2022-09-04T03:31:16.982Z,100334.53
2022-09-04T03:32:24.915Z,100330.38
2022-09-04T03:33:39.674Z,100332.66
2022-09-04T03:34:42.670Z,100323.34
2022-09-04T03:35:47.271Z,100334.16
2022-09-04T03:36:48.746Z,100335.00
2022-09-04T03:37:50.223Z,100333.31
2022-09-04T03:39:18.370Z,100331.63
2022-09-04T03:40:38.679Z,100329.97
2022-09-04T03:41:42.561Z,100329.13
2022-09-04T03:42:47.262Z,100332.28
2022-09-04T03:43:51.774Z,100323.78
2022-09-04T03:45:22.704Z,100327.78
2022-09-04T03:46:31.731Z,100327.28
2022-09-04T03:47:52.011Z,100332.94
2022-09-04T03:48:56.536Z,100336.94
2022-09-04T03:50:13.258Z,100339.22
2022-09-04T03:51:14.739Z,100343.72
2022-09-04T03:52:19.578Z,100347.72
2022-09-04T03:53:39.432Z,100347.72
2022-09-04T03:54:59.765Z,100344.06
2022-09-04T03:56:19.877Z,100354.53
2022-09-04T03:57:30.364Z,100351.19
2022-09-04T03:58:38.111Z,100349.53
2022-09-04T03:59:45.491Z,100357.19
2022-09-04T04:01:02.223Z,100352.69
2022-09-04T04:02:06.622Z,100354.34
2022-09-04T04:03:18.903Z,100351.84
2022-09-04T04:04:42.358Z,100358.03
2022-09-04T04:05:48.192Z,100364.84
2022-09-04T04:06:54.066Z,100353.53
2022-09-04T04:08:04.747Z,100355.50
2022-09-04T04:09:21.270Z,100355.50
2022-09-04T04:10:33.422Z,100353.53
2022-09-04T04:11:35.469Z,100360.00
2022-09-04T04:12:51.339Z,100353.53
2022-09-04T04:14:00.274Z,100359.19
2022-09-04T04:15:03.513Z,100360.00
2022-09-04T04:16:31.745Z,100364.84
2022-09-04T04:17:33.371Z,100360.00
2022-09-04T04:18:54.225Z,100354.34
2022-09-04T04:20:05.758Z,100367.66
2022-09-04T04:21:13.194Z,100360.84
2022-09-04T04:22:17.675Z,100367.66
2022-09-04T04:23:37.980Z,100364.84
2022-09-04T04:24:56.547Z,100363.69
2022-09-04T04:26:11.242Z,100354.69
2022-09-04T04:27:15.348Z,100366.31
2022-09-04T04:28:20.169Z,100364.66
2022-09-04T04:29:30.335Z,100369.47
2022-09-04T04:30:54.894Z,100363.81
2022-09-04T04:32:15.093Z,100366.16
2022-09-04T04:33:35.260Z,100371.81
2022-09-04T04:34:39.954Z,100373.75
2022-09-04T04:35:44.530Z,100374.09
2022-09-04T04:36:45.997Z,100376.41
2022-09-04T04:37:53.555Z,100371.59
2022-09-04T04:39:14.012Z,100380.41
2022-09-04T04:40:27.727Z,100377.56
2022-09-04T04:42:03.432Z,100375.91
2022-09-04T04:43:07.659Z,100378.72
2022-09-04T04:44:11.694Z,100377.06
2022-09-04T04:45:50.454Z,100387.53
2022-09-04T04:47:11.560Z,100390.69
2022-09-04T04:48:15.832Z,100390.69
2022-09-04T04:49:17.311Z,100395.53
2022-09-04T04:50:21.435Z,100400.34
2022-09-04T04:51:31.847Z,100398.69
2022-09-04T04:52:40.947Z,100400.34
2022-09-04T04:54:09.699Z,100399.00
2022-09-04T04:55:31.400Z,100406.63
2022-09-04T04:56:34.533Z,100407.78
2022-09-04T04:57:42.051Z,100398.47
2022-09-04T04:58:43.530Z,100404.13
2022-09-04T04:59:55.721Z,100405.59
2022-09-04T05:01:09.564Z,100411.25
2022-09-04T05:02:22.845Z,100406.75
2022-09-04T05:03:32.360Z,100403.94
2022-09-04T05:04:40.337Z,100408.44
2022-09-04T05:05:42.266Z,100412.41
2022-09-04T05:07:04.075Z,100412.09
2022-09-04T05:08:22.819Z,100419.75
2022-09-04T05:09:33.891Z,100419.41
2022-09-04T05:10:55.635Z,100418.56
2022-09-04T05:12:26.500Z,100427.56
2022-09-04T05:13:45.476Z,100419.41
2022-09-04T05:15:10.487Z,100423.06
2022-09-04T05:16:14.164Z,100420.25
2022-09-04T05:17:22.547Z,100429.25
2022-09-04T05:18:30.398Z,100425.28
2022-09-04T05:19:41.688Z,100425.78
2022-09-04T05:21:01.869Z,100427.47
2022-09-04T05:22:04.210Z,100427.13
2022-09-04T05:23:09.700Z,100428.81
2022-09-04T05:24:11.206Z,100426.81
2022-09-04T05:25:12.801Z,100434.13
2022-09-04T05:26:14.266Z,100433.81
2022-09-04T05:27:31.136Z,100441.66
2022-09-04T05:28:40.488Z,100442.50
2022-09-04T05:29:56.888Z,100438.53
2022-09-04T05:31:20.085Z,100439.03
2022-09-04T05:32:27.485Z,100436.22
2022-09-04T05:33:32.602Z,100439.88
2022-09-04T05:34:49.832Z,100438.72
2022-09-04T05:35:55.938Z,100448.03
2022-09-04T05:37:17.148Z,100445.19
2022-09-04T05:38:21.407Z,100447.72
2022-09-04T05:39:35.914Z,100445.72
2022-09-04T05:40:56.054Z,100458.69
2022-09-04T05:42:09.951Z,100457.53
2022-09-04T05:43:31.370Z,100449.06
2022-09-04T05:44:44.843Z,100462.03
2022-09-04T05:45:49.567Z,100454.06
2022-09-04T05:47:09.866Z,100455.75
2022-09-04T05:48:30.206Z,100459.72
2022-09-04T05:49:31.693Z,100469.91
2022-09-04T05:50:33.206Z,100465.09
2022-09-04T05:51:50.559Z,100464.75
2022-09-04T05:52:54.584Z,100472.09
2022-09-04T05:54:08.334Z,100474.06
2022-09-04T05:55:22.147Z,100473.75
2022-09-04T05:56:42.314Z,100473.75
2022-09-04T05:58:02.547Z,100481.06
2022-09-04T05:59:22.628Z,100482.44
2022-09-04T06:00:24.167Z,100481.59
2022-09-04T06:01:28.531Z,100482.13
2022-09-04T06:02:48.505Z,100480.97
2022-09-04T06:04:08.514Z,100488.00
2022-09-04T06:05:28.678Z,100486.84
2022-09-04T06:06:56.787Z,100492.19
2022-09-04T06:08:02.610Z,100488.69
2022-09-04T06:09:23.031Z,100493.19
2022-09-04T06:10:24.758Z,100482.38
2022-09-04T06:11:49.875Z,100485.22
2022-09-04T06:12:54.259Z,100489.38
2022-09-04T06:14:01.759Z,100499.25
2022-09-04T06:15:13.035Z,100490.44
2022-09-04T06:16:17.690Z,100496.94
2022-09-04T06:17:25.268Z,100490.63
2022-09-04T06:18:32.901Z,100495.09
2022-09-04T06:19:47.473Z,100496.44
2022-09-04T06:20:57.982Z,100501.78
2022-09-04T06:22:08.455Z,100506.31
2022-09-04T06:23:09.979Z,100501.66
2022-09-04T06:24:11.456Z,100509.34
2022-09-04T06:25:30.204Z,100505.00
2022-09-04T06:26:39.634Z,100507.19
2022-09-04T06:27:56.148Z,100500.34
2022-09-04T06:29:06.790Z,100510.22
2022-09-04T06:30:09.022Z,100510.72
2022-09-04T06:31:30.911Z,100510.41
2022-09-04T06:32:51.108Z,100512.06
2022-09-04T06:34:04.752Z,100511.41
2022-09-04T06:35:07.501Z,100517.91
2022-09-04T06:36:12.188Z,100514.75
2022-09-04T06:37:28.757Z,100523.75
2022-09-04T06:38:33.165Z,100517.78
2022-09-04T06:39:40.586Z,100525.97
2022-09-04T06:40:45.096Z,100526.47
2022-09-04T06:41:52.671Z,100523.31
2022-09-04T06:43:04.165Z,100513.66
2022-09-04T06:44:17.576Z,100526.31
2022-09-04T06:45:22.646Z,100525.69
2022-09-04T06:46:39.254Z,100524.53
2022-09-04T06:47:43.923Z,100525.03
2022-09-04T06:48:50.232Z,100525.88
2022-09-04T06:50:00.888Z,100537.38
2022-09-04T06:51:37.745Z,100527.72
2022-09-04T06:52:43.408Z,100528.22
2022-09-04T06:53:45.023Z,100531.56
2022-09-04T06:54:46.695Z,100532.72
2022-09-04T06:55:51.774Z,100529.59
2022-09-04T06:56:55.814Z,100532.09
2022-09-04T06:58:10.794Z,100545.09
2022-09-04T06:59:13.330Z,100536.28
2022-09-04T07:00:15.163Z,100537.97
2022-09-04T07:01:19.777Z,100541.63
2022-09-04T07:02:40.405Z,100543.31
2022-09-04T07:03:42.002Z,100543.31
2022-09-04T07:04:59.439Z,100539.31
2022-09-04T07:06:21.198Z,100545.81
2022-09-04T07:07:32.009Z,100549.13
2022-09-04T07:08:45.792Z,100547.97
2022-09-04T07:09:48.455Z,100551.66
2022-09-04T07:10:59.242Z,100548.50
2022-09-04T07:12:12.568Z,100558.34
2022-09-04T07:13:37.115Z,100554.34
2022-09-04T07:14:56.919Z,100552.03
2022-09-04T07:15:58.786Z,100553.69
2022-09-04T07:17:06.383Z,100550.53
2022-09-04T07:18:17.569Z,100554.69
2022-09-04T07:19:22.107Z,100553.53
2022-09-04T07:20:37.521Z,100554.06
2022-09-04T07:21:40.162Z,100558.25
2022-09-04T07:22:50.378Z,100555.06
2022-09-04T07:24:10.246Z,100557.56
2022-09-04T07:25:26.343Z,100556.06
2022-09-04T07:26:45.966Z,100557.75
2022-09-04T07:27:55.743Z,100555.75
2022-09-04T07:29:05.831Z,100560.25
2022-09-04T07:30:08.175Z,100554.28
2022-09-04T07:31:09.862Z,100553.13
2022-09-04T07:32:16.594Z,100566.13
2022-09-04T07:33:18.156Z,100561.78
2022-09-04T07:34:19.791Z,100562.63
2022-09-04T07:35:23.808Z,100560.28
2022-09-04T07:36:31.891Z,100563.13
2022-09-04T07:37:39.638Z,100564.78
2022-09-04T07:38:50.614Z,100568.13
2022-09-04T07:39:58.109Z,100565.00
2022-09-04T07:41:35.433Z,100563.84
2022-09-04T07:42:40.027Z,100563.50
2022-09-04T07:43:46.147Z,100567.16
2022-09-04T07:44:54.749Z,100572.50
2022-09-04T07:46:05.371Z,100570.16
2022-09-04T07:47:13.432Z,100578.00
2022-09-04T07:48:28.591Z,100583.34
2022-09-04T07:49:35.355Z,100586.53
2022-09-04T07:50:40.220Z,100588.19
2022-09-04T07:52:02.061Z,100589.03
2022-09-04T07:53:22.128Z,100589.69
2022-09-04T07:54:43.615Z,100590.53
2022-09-04T07:55:48.453Z,100593.34
2022-09-04T07:56:54.550Z,100593.84
2022-09-04T07:58:02.480Z,100593.53
2022-09-04T07:59:03.995Z,100594.41
2022-09-04T08:00:08.285Z,100594.06
2022-09-04T08:01:18.097Z,100590.91
2022-09-04T08:02:19.818Z,100598.72
2022-09-04T08:03:24.888Z,100600.41
2022-09-04T08:04:33.315Z,100607.75
2022-09-04T08:05:37.850Z,100600.91
2022-09-04T08:06:51.437Z,100595.22
2022-09-04T08:08:03.806Z,100598.56
2022-09-04T08:09:05.364Z,100601.94
2022-09-04T08:10:09.871Z,100602.44
2022-09-04T08:11:17.614Z,100606.13
2022-09-04T08:12:25.726Z,100608.63
2022-09-04T08:13:47.475Z,100603.78
2022-09-04T08:14:51.860Z,100612.78
2022-09-04T08:16:06.438Z,100611.31
2022-09-04T08:17:20.857Z,100613.00
2022-09-04T08:18:22.450Z,100617.00
2022-09-04T08:19:41.134Z,100609.66
2022-09-04T08:20:51.230Z,100619.00
2022-09-04T08:21:52.812Z,100615.81
2022-09-04T08:23:13.019Z,100613.81
2022-09-04T08:24:17.391Z,100620.47
2022-09-04T08:25:28.559Z,100614.50
2022-09-04T08:26:39.032Z,100622.66
2022-09-04T08:27:44.398Z,100617.00
2022-09-04T08:29:04.982Z,100622.03
2022-09-04T08:30:07.459Z,100628.72
2022-09-04T08:31:11.138Z,100630.38
2022-09-04T08:32:15.654Z,100628.72
2022-09-04T08:33:30.370Z,100632.38
2022-09-04T08:34:53.711Z,100632.88
2022-09-04T08:36:34.105Z,100630.53
2022-09-04T08:37:41.338Z,100632.22
2022-09-04T08:38:50.169Z,100629.38
2022-09-04T08:39:55.569Z,100637.06
2022-09-04T08:40:57.718Z,100635.06
2022-09-04T08:42:10.619Z,100636.38
2022-09-04T08:43:32.418Z,100637.41
2022-09-04T08:44:52.309Z,100640.75
2022-09-04T08:45:53.832Z,100639.59
2022-09-04T08:47:14.301Z,100649.28
2022-09-04T08:48:19.225Z,100645.75
2022-09-04T08:49:28.511Z,100641.75
2022-09-04T08:50:30.043Z,100647.94
2022-09-04T08:51:50.236Z,100644.44
2022-09-04T08:53:03.935Z,100649.47
2022-09-04T08:54:25.405Z,100645.28
2022-09-04T08:55:36.038Z,100650.63
2022-09-04T08:56:49.545Z,100650.63
2022-09-04T08:57:57.274Z,100657.47
2022-09-04T08:59:17.995Z,100653.97
2022-09-04T09:00:20.615Z,100652.78
2022-09-04T09:01:24.757Z,100654.63
2022-09-04T09:02:29.327Z,100656.50
2022-09-04T09:03:37.012Z,100652.16
2022-09-04T09:04:55.137Z,100655.97
2022-09-04T09:06:06.785Z,100651.66
2022-09-04T09:07:11.071Z,100646.97
2022-09-04T09:08:12.592Z,100657.81
2022-09-04T09:09:27.251Z,100655.66
2022-09-04T09:10:34.565Z,100650.31
2022-09-04T09:11:44.819Z,100644.47
2022-09-04T09:12:49.438Z,100652.84
2022-09-04T09:14:01.982Z,100641.63
2022-09-04T09:15:15.675Z,100658.22
2022-09-04T09:16:23.383Z,100657.34
2022-09-04T09:17:40.703Z,100653.19
2022-09-04T09:19:00.642Z,100654.34
2022-09-04T09:20:20.804Z,100660.03
2022-09-04T09:21:28.362Z,100662.03
2022-09-04T09:22:49.006Z,100657.31
2022-09-04T09:24:11.302Z,100662.16
2022-09-04T09:25:15.947Z,100651.09
2022-09-04T09:26:26.509Z,100651.91
2022-09-04T09:27:37.254Z,100661.78
2022-09-04T09:28:38.791Z,100652.53
2022-09-04T09:29:59.158Z,100647.63
2022-09-04T09:31:09.773Z,100639.56
2022-09-04T09:32:30.785Z,100649.56
2022-09-04T09:33:51.338Z,100632.63
2022-09-04T09:35:08.781Z,100639.06
2022-09-04T09:36:12.113Z,100642.72
2022-09-04T09:37:34.491Z,100650.66
2022-09-04T09:38:54.770Z,100641.94
2022-09-04T09:40:14.706Z,100641.34
2022-09-04T09:41:35.167Z,100641.28
2022-09-04T09:42:55.274Z,100637.34
2022-09-04T09:44:15.726Z,100633.84
2022-09-04T09:45:22.070Z,100629.16
2022-09-04T09:46:40.813Z,100636.34
2022-09-04T09:48:00.947Z,100629.38
2022-09-04T09:49:15.041Z,100632.38
2022-09-04T09:50:22.961Z,100628.47
2022-09-04T09:51:44.450Z,100628.63
2022-09-04T09:52:58.248Z,100625.78
2022-09-04T09:54:08.947Z,100623.09
2022-09-04T09:55:28.951Z,100616.91
2022-09-04T09:56:53.785Z,100610.59
2022-09-04T09:58:10.870Z,100619.47
2022-09-04T09:59:15.211Z,100617.88
2022-09-04T10:00:21.323Z,100614.06
2022-09-04T10:01:25.970Z,100613.63
2022-09-04T10:02:46.535Z,100616.56
2022-09-04T10:03:48.084Z,100615.03
2022-09-04T10:04:55.806Z,100616.75
2022-09-04T10:06:03.140Z,100615.47
2022-09-04T10:07:04.651Z,100613.84
2022-09-04T10:08:35.494Z,100606.38
2022-09-04T10:09:50.021Z,100600.78
2022-09-04T10:10:58.743Z,100620.94
2022-09-04T10:12:11.764Z,100609.84
2022-09-04T10:13:32.028Z,100606.31
2022-09-04T10:14:52.214Z,100612.16
2022-09-04T10:15:56.502Z,100610.75
2022-09-04T10:17:17.011Z,100603.69
2022-09-04T10:18:37.144Z,100609.22
2022-09-04T10:19:58.367Z,100607.06
2022-09-04T10:21:20.630Z,100608.50
2022-09-04T10:22:22.179Z,100606.81
2022-09-04T10:23:28.771Z,100602.56
2022-09-04T10:24:33.205Z,100598.31
2022-09-04T10:25:35.273Z,100596.88
2022-09-04T10:26:42.643Z,100604.78
2022-09-04T10:27:59.720Z,100600.91
2022-09-04T10:29:10.903Z,100594.63
2022-09-04T10:30:15.492Z,100604.34
2022-09-04T10:31:17.065Z,100597.56
2022-09-04T10:32:37.482Z,100587.81
2022-09-04T10:33:58.408Z,100600.50
2022-09-04T10:35:10.896Z,100588.50
2022-09-04T10:36:23.321Z,100592.09
2022-09-04T10:37:30.743Z,100590.31
2022-09-04T10:38:33.977Z,100591.31
2022-09-04T10:39:58.365Z,100593.13
2022-09-04T10:41:18.916Z,100592.88
2022-09-04T10:42:23.335Z,100595.94
2022-09-04T10:43:30.893Z,100588.69
2022-09-04T10:44:53.940Z,100593.34
2022-09-04T10:45:55.699Z,100593.53
2022-09-04T10:46:57.287Z,100579.63
2022-09-04T10:48:07.761Z,100582.22
2022-09-04T10:49:30.522Z,100590.53
2022-09-04T10:50:35.357Z,100589.00
2022-09-04T10:51:56.351Z,100581.66
2022-09-04T10:53:20.253Z,100587.03
2022-09-04T10:54:43.770Z,100584.16
2022-09-04T10:55:53.271Z,100577.47
2022-09-04T10:57:13.243Z,100581.13
2022-09-04T10:58:40.854Z,100578.16
2022-09-04T10:59:42.459Z,100578.09
2022-09-04T11:00:50.178Z,100580.63
2022-09-04T11:02:00.702Z,100579.75
2022-09-04T11:03:17.305Z,100573.16
2022-09-04T11:04:22.512Z,100570.69
2022-09-04T11:05:24.087Z,100573.56
2022-09-04T11:06:49.283Z,100582.22
2022-09-04T11:07:53.822Z,100577.78
2022-09-04T11:08:55.312Z,100584.88
2022-09-04T11:10:04.359Z,100575.06
2022-09-04T11:11:26.220Z,100572.63
2022-09-04T11:12:37.050Z,100573.53
2022-09-04T11:13:57.362Z,100574.38
2022-09-04T11:15:01.948Z,100571.13
2022-09-04T11:16:08.929Z,100573.22
2022-09-04T11:17:25.651Z,100571.16
2022-09-04T11:18:46.095Z,100567.03
2022-09-04T11:19:53.730Z,100570.38
2022-09-04T11:20:58.273Z,100574.09
2022-09-04T11:22:15.139Z,100567.09
2022-09-04T11:23:18.448Z,100571.16
2022-09-04T11:24:37.306Z,100568.69
2022-09-04T11:26:02.886Z,100571.06
2022-09-04T11:27:23.690Z,100560.75
2022-09-04T11:28:40.288Z,100566.94
2022-09-04T11:29:56.930Z,100563.16
2022-09-04T11:31:01.795Z,100559.41
2022-09-04T11:32:38.479Z,100558.94
2022-09-04T11:33:42.625Z,100554.00
2022-09-04T11:34:48.269Z,100563.03
2022-09-04T11:35:55.281Z,100558.91
2022-09-04T11:37:08.854Z,100561.38
2022-09-04T11:38:13.204Z,100557.59
2022-09-04T11:39:26.220Z,100560.88
2022-09-04T11:40:46.823Z,100565.78
2022-09-04T11:42:03.882Z,100554.63
2022-09-04T11:43:19.149Z,100557.91
2022-09-04T11:44:26.544Z,100559.59
2022-09-04T11:45:48.823Z,100549.34
2022-09-04T11:47:08.873Z,100553.81
2022-09-04T11:48:22.671Z,100552.22
2022-09-04T11:49:31.169Z,100549.34
2022-09-04T11:50:42.275Z,100550.16
2022-09-04T11:51:44.123Z,100551.00
2022-09-04T11:52:46.675Z,100549.34
2022-09-04T11:54:00.392Z,100548.53
2022-09-04T11:55:17.935Z,100550.25
2022-09-04T11:56:28.462Z,100545.72
2022-09-04T11:57:33.113Z,100553.56
2022-09-04T11:58:56.890Z,100552.75
2022-09-04T12:00:17.035Z,100540.41
2022-09-04T12:01:18.578Z,100546.19
2022-09-04T12:02:26.229Z,100558.53
2022-09-04T12:03:45.784Z,100550.28
2022-09-04T12:04:50.996Z,100554.81
2022-09-04T12:06:12.441Z,100544.91
2022-09-04T12:07:20.060Z,100547.81
2022-09-04T12:08:37.419Z,100550.69
2022-09-04T12:09:44.192Z,100551.09
2022-09-04T12:10:52.400Z,100555.66
2022-09-04T12:12:09.103Z,100555.22
2022-09-04T12:13:19.550Z,100551.94
2022-09-04T12:14:29.682Z,100545.41
2022-09-04T12:15:38.452Z,100542.13
2022-09-04T12:16:58.371Z,100545.81
2022-09-04T12:18:09.058Z,100548.63
2022-09-04T12:19:13.643Z,100550.25
2022-09-04T12:20:16.067Z,100549.84
2022-09-04T12:21:26.484Z,100560.13
2022-09-04T12:22:31.266Z,100552.72
2022-09-04T12:23:32.751Z,100547.38
2022-09-04T12:25:03.713Z,100543.69
2022-09-04T12:26:05.375Z,100553.56
2022-09-04T12:27:08.155Z,100556.03
2022-09-04T12:28:37.943Z,100547.81
2022-09-04T12:29:47.255Z,100553.56
2022-09-04T12:30:50.136Z,100548.63
2022-09-04T12:31:58.122Z,100548.22
2022-09-04T12:33:08.366Z,100552.34
2022-09-04T12:34:19.376Z,100554.31
2022-09-04T12:35:27.463Z,100548.53
2022-09-04T12:36:52.154Z,100548.47
2022-09-04T12:38:02.965Z,100554.19
2022-09-04T12:39:23.470Z,100555.44
2022-09-04T12:40:43.563Z,100551.69
2022-09-04T12:41:50.116Z,100550.81
2022-09-04T12:42:57.400Z,100549.94
2022-09-04T12:44:08.809Z,100552.81
2022-09-04T12:45:16.522Z,100555.28
2022-09-04T12:46:37.072Z,100547.47
2022-09-04T12:47:41.829Z,100552.41
2022-09-04T12:48:46.192Z,100557.34
2022-09-04T12:49:58.895Z,100551.66
2022-09-04T12:51:01.640Z,100551.69
2022-09-04T12:52:09.454Z,100550.47
2022-09-04T12:53:20.964Z,100553.75
2022-09-04T12:54:23.832Z,100549.59
2022-09-04T12:55:36.215Z,100554.91
2022-09-04T12:56:42.534Z,100554.47
2022-09-04T12:57:47.210Z,100557.34
2022-09-04T12:58:52.752Z,100552.00
2022-09-04T13:00:12.334Z,100561.38
2022-09-04T13:01:46.244Z,100554.34
2022-09-04T13:02:50.645Z,100557.22
2022-09-04T13:04:11.599Z,100557.22
2022-09-04T13:05:32.591Z,100563.78
2022-09-04T13:06:34.291Z,100565.03
2022-09-04T13:07:54.893Z,100558.84
2022-09-04T13:09:02.505Z,100557.16
2022-09-04T13:10:09.893Z,100552.22
2022-09-04T13:11:11.493Z,100555.50
2022-09-04T13:12:17.282Z,100558.75
2022-09-04T13:13:18.876Z,100561.19
2022-09-04T13:14:28.383Z,100559.88
2022-09-04T13:15:35.896Z,100562.22
2022-09-04T13:16:42.515Z,100554.41
2022-09-04T13:17:44.043Z,100554.41
2022-09-04T13:19:00.164Z,100563.06
2022-09-04T13:20:01.724Z,100566.72
2022-09-04T13:21:03.399Z,100563.38
2022-09-04T13:22:10.778Z,100563.34
2022-09-04T13:23:36.945Z,100568.28
2022-09-04T13:25:14.416Z,100555.13
2022-09-04T13:26:24.289Z,100565.31
2022-09-04T13:27:44.153Z,100566.94
2022-09-04T13:29:04.241Z,100568.56
2022-09-04T13:30:06.995Z,100561.59
2022-09-04T13:31:09.413Z,100551.28
2022-09-04T13:32:16.959Z,100559.47
2022-09-04T13:33:39.769Z,100547.53
2022-09-04T13:34:58.630Z,100554.50
2022-09-04T13:36:03.234Z,100554.06